Impacts METAR Board
IDs:

KSEA - Seattle-Tacoma Intl, WA, US

Updated at: 0700 UTC 24 Jun 2018
Potential Impact None Slight Moderate High
Time 23/19Z 23/20Z 23/21Z 23/22Z 23/23Z 24/00Z 24/01Z 24/02Z 24/03Z 24/04Z 24/05Z 24/06Z 24/07Z
Temp62 63 64 67 70 70 71 71 69 66 65 64 62
Dewpt53 53 53 54 53 52 50 50 51 52 52 53 54
Altim30.21 30.21 30.20 30.20 30.19 30.18 30.17 30.16 30.15 30.14 30.15 30.13 30.13
VIS10 10 10 10 10 10 10 10 10 10 10 10 10
CIG15 17 22 36 39 -- -- -- -- -- -- -- --
CoverOVCOVCBKNBKNBKNSCTSCTSCTFEWFEWCLRCLRCLR
FltCatMVFRMVFRMVFRVFRVFRVFRVFRVFRVFRVFRVFRVFRVFR
WX--------------------------
WDir0250250240290300280280290290350340360
WSpd3 5 6 6 6 8 7 8 7 3 3 5 5
WGst-- -- -- -- -- -- -- -- -- -- -- -- --
Raw hourly METARs
KSEA 231853Z VRB03KT 10SM OVC015 17/12 A3021 RMK AO2 SLP235 T01670117
KSEA 231953Z 25005KT 10SM OVC017 17/12 A3021 RMK AO2 SLP235 T01720117
KSEA 232053Z 25006KT 10SM BKN022 18/12 A3020 RMK AO2 SLP233 T01780117 58000
KSEA 232205Z 24006KT 10SM SCT025 BKN036 19/12 A3020 RMK AO2 T01940122
KSEA 232253Z 29006KT 10SM SCT030 BKN039 21/12 A3019 RMK AO2 SLP228 T02110117
KSEA 232353Z 30008KT 10SM SCT034 SCT042 21/11 A3018 RMK AO2 SLP227 T02110111 10217 20156 58006
KSEA 240053Z 28007KT 10SM SCT039 SCT200 22/10 A3017 RMK AO2 SLP221 T02170100
KSEA 240153Z 28008KT 10SM FEW039 SCT220 22/10 A3016 RMK AO2 SLP217 T02170100
KSEA 240253Z 29007KT 10SM FEW039 FEW220 21/11 A3015 RMK AO2 SLP214 T02060106 56013
KSEA 240353Z 29003KT 10SM FEW036 FEW220 19/11 A3014 RMK AO2 SLP213 T01890111
KSEA 240453Z 35003KT 10SM CLR 18/11 A3015 RMK AO2 SLP214 T01830111
KSEA 240553Z 34005KT 10SM CLR 18/12 A3013 RMK AO2 SLP210 T01780117 10222 20178 58004
KSEA 240653Z 36005KT 10SM CLR 17/12 A3013 RMK AO2 SLP208 T01670122



Page loaded:  07:11 UTC  |   12:11 AM Pacific  |   01:11 AM Mountain  |   02:11 AM Central  |   03:11 AM Eastern

 

ADVISORIES

FORECASTS

FORECASTS

OBSERVATIONS

USER TOOLS

ABOUT US